Time;durP1;ratioP1;P1;durP2;ratioP2;P2;SDS_P1;SDS_P2;PMS_P1;PMS_P2;Temp;Humidity;BMP_temperature;BMP_pressure;BME280_temperature;BME280_humidity;BME280_pressure;Samples;Min_cycle;Max_cycle;Signal;HPM_P1;HPM_P2
2023/01/05 00:01:09;;;;;;;1.67;0.80;;;2.00;99.90;;;;;;4957776;28;20141;-65
2023/01/05 00:03:36;;;;;;;0.40;0.20;;;2.00;99.90;;;;;;4948191;28;20504;-67
2023/01/05 00:06:14;;;;;;;2.15;0.50;;;2.00;99.90;;;;;;4960002;28;20364;-67
2023/01/05 00:08:42;;;;;;;2.70;0.40;;;2.00;99.90;;;;;;4953532;28;20141;-68
2023/01/05 00:22:31;;;;;;;0.55;0.30;;;2.00;99.90;;;;;;4958055;28;20051;-68
2023/01/05 00:25:02;;;;;;;0.73;0.47;;;2.00;99.90;;;;;;4961833;28;20078;-65
2023/01/05 00:27:38;;;;;;;0.43;0.43;;;2.00;99.90;;;;;;4953500;28;20138;-67
2023/01/05 00:30:06;;;;;;;2.95;0.60;;;2.00;99.90;;;;;;4975301;28;20061;-66
2023/01/05 00:32:33;;;;;;;1.95;0.40;;;2.00;99.90;;;;;;4954879;28;20465;-65
2023/01/05 00:35:01;;;;;;;0.52;0.40;;;2.00;99.90;;;;;;4956288;28;20536;-72
2023/01/05 00:37:31;;;;;;;1.90;0.68;;;2.00;99.90;;;;;;4954652;28;20047;-65
2023/01/05 00:39:58;;;;;;;4.18;1.17;;;2.00;99.90;;;;;;4951872;28;20089;-67
2023/01/05 00:42:25;;;;;;;4.20;0.52;;;2.00;99.90;;;;;;4953795;28;20047;-70
2023/01/05 00:44:52;;;;;;;5.88;3.97;;;2.00;99.90;;;;;;4955670;28;20047;-71
2023/01/05 00:47:19;;;;;;;2.15;0.40;;;2.00;99.90;;;;;;4967544;28;20051;-66
2023/01/05 00:49:47;;;;;;;1.70;0.40;;;2.00;99.90;;;;;;4957108;28;20055;-67
2023/01/05 00:52:14;;;;;;;0.70;0.50;;;2.00;99.90;;;;;;4957869;28;20420;-65
2023/01/05 00:54:41;;;;;;;0.90;0.60;;;2.00;99.90;;;;;;4951736;28;20093;-65
2023/01/05 00:57:12;;;;;;;2.40;0.57;;;2.00;99.90;;;;;;4956053;28;20094;-69
2023/01/05 00:59:40;;;;;;;1.42;0.60;;;2.00;99.90;;;;;;4967646;28;20550;-69
2023/01/05 01:02:07;;;;;;;2.97;0.65;;;2.00;99.90;;;;;;4954955;28;20057;-65
2023/01/05 01:04:34;;;;;;;0.75;0.68;;;2.00;99.90;;;;;;4956177;28;20090;-68
2023/01/05 01:07:04;;;;;;;1.33;1.23;;;2.00;99.90;;;;;;4954897;28;20493;-68
2023/01/05 01:09:31;;;;;;;3.20;1.17;;;2.00;99.90;;;;;;4951966;28;20430;-68
2023/01/05 01:11:58;;;;;;;2.13;0.45;;;2.00;99.90;;;;;;4973044;28;20079;-65
2023/01/05 01:14:25;;;;;;;1.80;0.57;;;2.00;99.90;;;;;;4949209;28;20125;-71
2023/01/05 01:16:52;;;;;;;1.52;0.63;;;2.00;99.90;;;;;;4953300;28;20141;-69
2023/01/05 01:19:22;;;;;;;0.68;0.68;;;2.00;99.90;;;;;;4954838;28;20512;-65
2023/01/05 01:21:49;;;;;;;2.15;1.17;;;2.00;99.90;;;;;;4947681;29;20508;-65
2023/01/05 01:24:25;;;;;;;1.42;0.60;;;1.90;99.90;;;;;;4969619;28;20055;-65
2023/01/05 01:26:53;;;;;;;1.20;0.80;;;1.90;99.90;;;;;;4972175;28;20055;-66
2023/01/05 01:29:22;;;;;;;2.58;0.95;;;1.90;99.90;;;;;;4956075;28;20748;-72
2023/01/05 01:31:51;;;;;;;1.25;0.65;;;1.90;99.90;;;;;;4955307;28;20054;-68
2023/01/05 01:34:19;;;;;;;0.70;0.70;;;1.90;99.90;;;;;;4950767;28;20437;-69
2023/01/05 01:36:46;;;;;;;3.60;0.75;;;1.80;99.90;;;;;;4955754;28;20485;-65
2023/01/05 01:39:15;;;;;;;0.73;0.60;;;1.80;99.90;;;;;;4975123;28;20146;-68
2023/01/05 01:41:46;;;;;;;2.17;0.82;;;1.80;99.90;;;;;;4972477;28;20050;-65
2023/01/05 01:44:47;;;;;;;1.27;0.70;;;1.80;99.90;;;;;;4953131;28;20456;-67
2023/01/05 01:47:37;;;;;;;1.52;0.65;;;1.80;99.90;;;;;;4970999;28;20476;-66
2023/01/05 01:50:27;;;;;;;2.17;0.75;;;1.70;99.90;;;;;;4951284;28;20408;-69
2023/01/05 01:53:00;;;;;;;;;;;1.70;99.90;;;;;;4952398;28;20051;-69
2023/01/05 01:55:28;;;;;;;1.85;0.60;;;1.70;99.90;;;;;;4953954;28;19976;-65
2023/01/05 01:57:56;;;;;;;2.70;1.33;;;1.70;99.90;;;;;;4953891;28;20447;-68
2023/01/05 02:00:23;;;;;;;2.47;0.77;;;1.70;99.90;;;;;;4966592;28;20062;-69
2023/01/05 02:02:53;;;;;;;1.45;0.70;;;1.70;99.90;;;;;;4957383;28;20113;-69
2023/01/05 02:05:28;;;;;;;1.08;0.90;;;1.70;99.90;;;;;;4965466;28;20554;-67
2023/01/05 02:07:55;;;;;;;2.08;1.00;;;1.70;99.90;;;;;;4956451;28;20049;-65
2023/01/05 02:10:44;;;;;;;3.88;0.70;;;1.60;99.90;;;;;;4954509;28;20089;-70
2023/01/05 02:13:47;;;;;;;2.88;1.15;;;1.60;99.90;;;;;;4963249;28;20051;-65
2023/01/05 02:16:15;;;;;;;0.98;0.45;;;1.60;99.90;;;;;;4966030;28;20054;-69
2023/01/05 02:18:49;;;;;;;3.70;1.58;;;1.60;99.90;;;;;;4956335;28;20070;-71
2023/01/05 02:21:41;;;;;;;2.17;0.60;;;1.60;99.90;;;;;;4953846;28;20050;-68
2023/01/05 02:24:16;;;;;;;2.08;0.70;;;1.60;99.90;;;;;;4959233;28;20141;-67
2023/01/05 02:27:28;;;;;;;2.70;0.80;;;1.60;99.90;;;;;;4956973;28;20043;-67
2023/01/05 02:30:17;;;;;;;0.90;0.50;;;1.60;99.90;;;;;;4959308;28;20050;-66
2023/01/05 02:33:24;;;;;;;3.08;1.27;;;1.60;99.90;;;;;;4960154;28;20051;-68
2023/01/05 02:36:12;;;;;;;3.33;0.70;;;1.60;99.90;;;;;;4962342;28;20061;-68
2023/01/05 02:38:49;;;;;;;0.40;0.25;;;1.60;99.90;;;;;;4959263;28;20073;-70
2023/01/05 02:41:31;;;;;;;2.00;0.50;;;1.60;99.90;;;;;;4971065;28;20472;-65
2023/01/05 02:44:00;;;;;;;0.63;0.40;;;1.60;99.90;;;;;;4974876;28;20141;-67
2023/01/05 02:46:27;;;;;;;1.73;0.43;;;1.60;99.90;;;;;;4957724;28;20055;-70
2023/01/05 02:48:58;;;;;;;0.10;0.10;;;1.60;99.90;;;;;;4960855;28;20053;-65
2023/01/05 02:51:37;;;;;;;1.48;0.47;;;1.60;99.90;;;;;;4972901;28;20059;-67
2023/01/05 02:54:20;;;;;;;1.48;0.50;;;1.60;99.90;;;;;;4960257;28;20134;-65
2023/01/05 02:56:53;;;;;;;1.40;0.43;;;1.60;99.90;;;;;;4965267;28;20051;-66
2023/01/05 02:59:23;;;;;;;4.35;0.40;;;1.60;99.90;;;;;;4972010;28;20705;-65
2023/01/05 03:01:58;;;;;;;2.28;0.40;;;1.60;99.90;;;;;;4959939;28;20047;-65
2023/01/05 03:04:40;;;;;;;2.13;0.32;;;1.60;99.90;;;;;;4954314;28;20762;-68
2023/01/05 03:07:16;;;;;;;1.95;0.47;;;1.60;99.90;;;;;;4953397;28;20051;-68
2023/01/05 03:09:45;;;;;;;0.98;0.60;;;1.60;99.90;;;;;;4951464;28;20047;-68
2023/01/05 03:15:29;;;;;;;4.53;1.02;;;1.60;99.90;;;;;;4962214;28;20047;-66
2023/01/05 03:18:10;;;;;;;1.58;0.32;;;1.60;99.90;;;;;;4956064;28;20059;-66
2023/01/05 03:20:45;;;;;;;1.42;0.65;;;1.60;99.90;;;;;;4965446;28;20050;-66
2023/01/05 03:37:33;;;;;;;3.42;0.70;;;1.40;99.90;;;;;;4968900;28;20051;-69
2023/01/05 03:40:03;;;;;;;4.53;1.25;;;1.40;99.90;;;;;;4953590;28;20449;-67
2023/01/05 03:42:36;;;;;;;2.92;0.40;;;1.50;99.90;;;;;;4955021;28;20071;-65
2023/01/05 03:45:04;;;;;;;1.55;0.65;;;1.50;99.90;;;;;;4950882;28;20109;-66
2023/01/05 03:47:32;;;;;;;12.05;1.52;;;1.50;99.90;;;;;;4956543;28;20055;-66
2023/01/05 03:49:59;;;;;;;1.85;0.80;;;1.50;99.90;;;;;;4963901;28;20511;-66
2023/01/05 03:52:26;;;;;;;4.72;0.70;;;1.50;99.90;;;;;;4967435;28;20055;-70
2023/01/05 03:54:53;;;;;;;3.13;0.70;;;1.40;99.90;;;;;;4956184;28;20131;-65
2023/01/05 03:57:20;;;;;;;2.10;0.65;;;1.40;99.90;;;;;;4960638;28;20074;-65
2023/01/05 03:59:47;;;;;;;3.30;0.98;;;1.40;99.90;;;;;;4973366;28;20401;-67
2023/01/05 04:02:15;;;;;;;2.40;0.90;;;1.40;99.90;;;;;;4952341;28;20134;-67
2023/01/05 04:04:42;;;;;;;3.17;1.08;;;1.40;99.90;;;;;;4950222;28;20102;-66
2023/01/05 04:07:09;;;;;;;1.13;0.60;;;1.40;99.90;;;;;;4948308;28;20142;-65
2023/01/05 04:09:36;;;;;;;5.32;0.98;;;1.40;99.90;;;;;;4958662;28;20137;-67
2023/01/05 04:12:03;;;;;;;2.25;0.88;;;1.40;99.90;;;;;;4976104;28;20103;-67
2023/01/05 04:14:33;;;;;;;;;;;1.40;99.90;;;;;;4955398;28;20054;-68
2023/01/05 04:17:00;;;;;;;1.95;0.77;;;1.40;99.90;;;;;;4957738;28;19930;-65
2023/01/05 04:19:27;;;;;;;3.83;0.50;;;1.30;99.90;;;;;;4958676;28;20532;-64
2023/01/05 04:21:55;;;;;;;4.78;1.05;;;1.30;99.90;;;;;;4972355;28;20052;-66
2023/01/05 04:24:23;;;;;;;4.22;0.90;;;1.30;99.90;;;;;;4955707;28;20550;-70
2023/01/05 04:26:50;;;;;;;2.63;0.93;;;1.20;99.90;;;;;;4960244;28;20070;-68
2023/01/05 04:29:20;;;;;;;2.15;0.50;;;1.20;99.90;;;;;;4973105;28;20054;-66
2023/01/05 04:31:48;;;;;;;3.17;0.80;;;1.20;99.90;;;;;;4950700;28;20057;-66
2023/01/05 04:34:16;;;;;;;3.63;0.70;;;1.30;99.90;;;;;;4952251;28;20086;-70
2023/01/05 04:36:46;;;;;;;2.13;0.52;;;1.20;99.90;;;;;;4975850;28;20043;-67
2023/01/05 04:39:15;;;;;;;4.90;0.80;;;1.20;99.90;;;;;;4957250;28;20047;-66
2023/01/05 04:41:42;;;;;;;4.05;1.00;;;1.20;99.90;;;;;;4974307;28;20047;-66
2023/01/05 04:44:09;;;;;;;3.25;1.17;;;1.20;99.90;;;;;;4953235;28;20051;-66
2023/01/05 04:46:36;;;;;;;2.28;0.80;;;1.20;99.90;;;;;;4957783;28;20074;-67
2023/01/05 04:49:04;;;;;;;2.92;0.90;;;1.20;99.90;;;;;;4949594;28;20514;-65
2023/01/05 04:51:31;;;;;;;2.97;0.70;;;1.20;99.90;;;;;;4973095;28;20059;-70
2023/01/05 04:53:58;;;;;;;1.83;0.60;;;1.20;99.90;;;;;;4966829;28;20063;-66
2023/01/05 04:56:26;;;;;;;2.60;0.98;;;1.10;99.90;;;;;;4968836;28;20058;-68
2023/01/05 04:58:53;;;;;;;1.42;1.00;;;1.10;99.90;;;;;;4971339;28;20410;-68
2023/01/05 05:01:19;;;;;;;1.80;1.25;;;1.10;99.90;;;;;;4957068;28;20047;-66
2023/01/05 05:03:51;;;;;;;4.70;1.88;;;1.20;99.90;;;;;;4963262;28;20404;-67
2023/01/05 05:06:20;;;;;;;3.20;0.93;;;1.20;99.90;;;;;;4946003;28;20098;-65
2023/01/05 05:08:48;;;;;;;6.82;1.50;;;1.10;99.90;;;;;;4949930;28;20043;-66
2023/01/05 05:11:15;;;;;;;8.05;2.03;;;1.10;99.90;;;;;;4948047;28;20082;-65
2023/01/05 05:13:45;;;;;;;4.53;1.23;;;1.10;99.90;;;;;;4971433;28;20047;-66
2023/01/05 05:16:12;;;;;;;3.00;1.48;;;1.20;99.90;;;;;;4949601;28;20286;-66
2023/01/05 05:18:41;;;;;;;9.60;3.05;;;1.10;99.90;;;;;;4971365;28;20130;-66
2023/01/05 05:21:14;;;;;;;5.30;1.70;;;1.00;99.90;;;;;;4973280;28;20771;-67
2023/01/05 05:23:40;;;;;;;3.60;1.67;;;1.00;99.90;;;;;;4954387;28;20059;-66
2023/01/05 05:26:07;;;;;;;6.22;2.45;;;1.00;99.90;;;;;;4948698;28;20485;-66
2023/01/05 05:28:35;;;;;;;3.33;1.08;;;1.00;99.90;;;;;;4956413;28;20054;-65
2023/01/05 05:31:02;;;;;;;4.55;1.63;;;1.00;99.90;;;;;;4949982;28;20486;-69
2023/01/05 05:33:28;;;;;;;2.03;1.42;;;1.00;99.90;;;;;;4956278;28;20046;-67
2023/01/05 05:35:55;;;;;;;4.55;1.70;;;1.00;99.90;;;;;;4956567;28;20149;-65
2023/01/05 05:38:22;;;;;;;3.50;1.77;;;1.00;99.90;;;;;;4954960;28;20062;-71
2023/01/05 05:40:49;;;;;;;4.60;2.03;;;1.00;99.90;;;;;;4957342;28;20051;-65
2023/01/05 05:43:16;;;;;;;2.67;1.90;;;0.90;99.90;;;;;;4957236;28;20051;-67
2023/01/05 05:45:44;;;;;;;4.68;1.92;;;0.90;99.90;;;;;;4957040;28;20114;-67
2023/01/05 05:48:17;;;;;;;2.90;1.75;;;0.90;99.90;;;;;;4955988;28;20496;-66
2023/01/05 05:50:44;;;;;;;5.47;1.85;;;0.90;99.90;;;;;;4955854;28;20633;-66
2023/01/05 05:53:11;;;;;;;4.22;1.98;;;0.80;99.90;;;;;;4955100;28;20079;-66
2023/01/05 05:55:38;;;;;;;7.82;2.40;;;0.80;99.90;;;;;;4959889;28;20085;-71
2023/01/05 05:58:05;;;;;;;6.13;2.33;;;0.80;99.90;;;;;;4956543;28;20053;-65
2023/01/05 06:00:32;;;;;;;2.70;1.40;;;0.80;99.90;;;;;;4952301;28;20137;-65
2023/01/05 06:02:59;;;;;;;8.85;1.75;;;0.80;99.90;;;;;;4958757;28;20537;-70
2023/01/05 06:05:26;;;;;;;2.90;2.22;;;0.80;99.90;;;;;;4959052;28;20503;-67
2023/01/05 06:07:52;;;;;;;3.70;1.60;;;0.80;99.90;;;;;;4958045;28;20060;-67
2023/01/05 06:10:19;;;;;;;3.65;2.10;;;0.80;99.90;;;;;;4951515;28;20047;-68
2023/01/05 06:12:46;;;;;;;3.47;3.10;;;0.70;99.90;;;;;;4953801;28;20413;-66
2023/01/05 06:15:14;;;;;;;2.35;1.77;;;0.80;99.90;;;;;;4961940;28;20386;-65
2023/01/05 06:17:40;;;;;;;3.53;2.17;;;0.80;99.90;;;;;;4963785;28;20134;-71
2023/01/05 06:20:08;;;;;;;7.00;2.20;;;0.70;99.90;;;;;;4961788;28;20566;-66
2023/01/05 06:22:35;;;;;;;3.92;1.83;;;0.80;99.90;;;;;;4959382;28;20114;-67
2023/01/05 06:25:03;;;;;;;6.95;1.83;;;0.80;99.90;;;;;;4958847;28;20047;-70
2023/01/05 06:27:30;;;;;;;7.30;1.65;;;0.70;99.90;;;;;;4960094;28;20066;-65
2023/01/05 06:29:57;;;;;;;7.82;1.95;;;0.70;99.90;;;;;;4961344;28;20046;-65
2023/01/05 06:32:24;;;;;;;2.53;1.40;;;0.70;99.90;;;;;;4954874;28;20055;-67
2023/01/05 06:34:50;;;;;;;4.90;1.77;;;0.70;99.90;;;;;;4952807;28;20139;-67
2023/01/05 06:37:17;;;;;;;2.83;1.73;;;0.60;99.90;;;;;;4957104;28;20079;-67
2023/01/05 06:39:44;;;;;;;7.22;1.88;;;0.60;99.90;;;;;;4955697;28;20058;-66
2023/01/05 06:42:11;;;;;;;3.78;1.67;;;0.60;99.90;;;;;;4954517;28;20442;-66
2023/01/05 06:44:38;;;;;;;5.47;1.98;;;0.60;99.90;;;;;;4954614;28;20058;-65
2023/01/05 06:47:05;;;;;;;4.38;1.95;;;0.60;99.90;;;;;;4960573;28;20094;-66
2023/01/05 06:49:32;;;;;;;3.42;2.20;;;0.50;99.90;;;;;;4954859;28;20493;-66
2023/01/05 06:51:59;;;;;;;1.88;1.42;;;0.60;99.90;;;;;;4957258;28;20166;-66
2023/01/05 06:54:26;;;;;;;4.25;2.08;;;0.60;99.90;;;;;;4950633;28;20039;-71
2023/01/05 06:56:53;;;;;;;4.88;2.10;;;0.60;99.90;;;;;;4959610;28;20043;-69
2023/01/05 06:59:20;;;;;;;2.83;1.73;;;0.60;99.90;;;;;;4956508;28;20047;-73
2023/01/05 07:01:46;;;;;;;3.88;1.45;;;0.60;99.90;;;;;;4955422;28;20054;-65
2023/01/05 07:04:13;;;;;;;2.83;1.80;;;0.50;99.90;;;;;;4953422;28;20075;-65
2023/01/05 07:06:40;;;;;;;2.47;2.22;;;0.50;99.90;;;;;;4956274;28;20521;-66
2023/01/05 07:09:07;;;;;;;4.43;1.30;;;0.50;99.90;;;;;;4957314;28;20454;-66
2023/01/05 07:11:34;;;;;;;3.53;1.40;;;0.50;99.90;;;;;;4952229;28;20051;-67
2023/01/05 07:14:01;;;;;;;3.83;1.75;;;0.50;99.90;;;;;;4957007;28;20051;-67
2023/01/05 07:16:28;;;;;;;4.70;1.77;;;0.50;99.90;;;;;;4953957;28;20051;-66
2023/01/05 07:18:55;;;;;;;5.72;2.70;;;0.50;99.90;;;;;;4957313;28;20090;-65
2023/01/05 07:21:22;;;;;;;4.93;1.90;;;0.50;99.90;;;;;;4953720;28;20075;-68
2023/01/05 07:23:48;;;;;;;2.85;2.65;;;0.50;99.90;;;;;;4952483;28;20054;-67
2023/01/05 07:26:15;;;;;;;7.40;2.08;;;0.40;99.90;;;;;;4953804;28;20110;-72
2023/01/05 07:28:42;;;;;;;3.58;2.20;;;0.40;99.90;;;;;;4952419;28;20071;-68
2023/01/05 07:31:09;;;;;;;3.50;2.03;;;0.40;99.90;;;;;;4955347;28;20051;-68
2023/01/05 07:33:36;;;;;;;3.92;1.75;;;0.40;99.90;;;;;;4953082;28;20040;-68
2023/01/05 07:36:06;;;;;;;2.58;1.63;;;0.40;99.90;;;;;;4952938;28;20054;-67
2023/01/05 07:38:33;;;;;;;4.95;1.85;;;0.40;99.90;;;;;;4957184;28;20039;-66
2023/01/05 07:41:01;;;;;;;8.85;2.33;;;0.40;99.90;;;;;;4952331;28;20070;-68
2023/01/05 07:43:28;;;;;;;3.92;1.63;;;0.30;99.90;;;;;;4954014;28;20053;-68
2023/01/05 07:46:00;;;;;;;4.63;1.58;;;0.30;99.90;;;;;;4955399;28;20560;-68
2023/01/05 07:48:27;;;;;;;3.15;2.42;;;0.40;99.90;;;;;;4952384;28;20502;-66
2023/01/05 07:51:04;;;;;;;5.25;1.85;;;0.30;99.90;;;;;;4952302;28;20106;-66
2023/01/05 07:53:33;;;;;;;6.10;2.45;;;0.30;99.90;;;;;;4953788;28;20150;-68
2023/01/05 07:56:11;;;;;;;3.95;1.75;;;0.30;99.90;;;;;;4951685;28;20047;-67
2023/01/05 07:58:38;;;;;;;4.72;1.85;;;0.30;99.90;;;;;;4949927;28;20055;-67
2023/01/05 08:01:08;;;;;;;4.75;2.25;;;0.30;99.90;;;;;;4953304;28;20047;-67
2023/01/05 08:03:36;;;;;;;4.50;2.20;;;0.30;99.90;;;;;;4948613;28;20453;-66
2023/01/05 08:06:11;;;;;;;7.50;2.78;;;0.30;99.90;;;;;;4953030;28;20060;-74
2023/01/05 08:08:39;;;;;;;3.97;2.55;;;0.30;99.90;;;;;;4950047;28;20051;-67
2023/01/05 08:11:08;;;;;;;3.72;2.17;;;0.20;99.90;;;;;;4955156;28;20482;-66
2023/01/05 08:16:21;;;;;;;3.47;2.45;;;0.30;99.90;;;;;;4953059;28;20134;-70
2023/01/05 08:18:48;;;;;;;5.32;2.97;;;0.30;99.90;;;;;;4952411;28;20054;-67
2023/01/05 08:21:15;;;;;;;6.72;2.65;;;0.30;99.90;;;;;;4952026;28;20046;-68
2023/01/05 08:23:44;;;;;;;5.88;2.65;;;0.30;99.90;;;;;;4947551;28;20039;-67
2023/01/05 08:26:17;;;;;;;7.32;2.28;;;0.20;99.90;;;;;;4943553;28;20062;-70
2023/01/05 08:28:44;;;;;;;5.47;3.05;;;0.20;99.90;;;;;;4951985;28;20130;-67
2023/01/05 08:31:21;;;;;;;4.55;2.47;;;0.20;99.90;;;;;;4951047;28;20085;-68
2023/01/05 08:33:48;;;;;;;7.72;2.88;;;0.20;99.90;;;;;;4950999;28;20547;-69
2023/01/05 08:36:18;;;;;;;7.90;4.25;;;0.20;99.90;;;;;;4948346;28;20057;-69
2023/01/05 08:38:47;;;;;;;4.32;2.70;;;0.20;99.90;;;;;;4950270;28;20628;-67
2023/01/05 08:41:28;;;;;;;4.32;1.90;;;0.10;99.90;;;;;;4950886;28;20055;-67
2023/01/05 08:43:58;;;;;;;5.60;2.40;;;0.10;99.90;;;;;;4948458;28;20059;-66
2023/01/05 08:46:28;;;;;;;4.20;3.03;;;0.10;99.90;;;;;;4951176;28;20074;-68
2023/01/05 08:48:56;;;;;;;;;;;0.10;99.90;;;;;;4951304;28;20105;-66
2023/01/05 08:51:23;;;;;;;5.68;2.70;;;0.10;99.90;;;;;;4951914;28;19926;-70
2023/01/05 08:53:50;;;;;;;3.78;2.80;;;0.10;99.90;;;;;;4953651;28;20520;-66
2023/01/05 08:56:17;;;;;;;3.90;2.55;;;0.10;99.90;;;;;;4950001;28;20039;-66
2023/01/05 08:58:44;;;;;;;5.15;3.10;;;0.10;99.90;;;;;;4949432;28;20057;-71
2023/01/05 09:01:14;;;;;;;9.10;3.33;;;0.10;99.90;;;;;;4953336;28;20491;-73
2023/01/05 09:03:41;;;;;;;5.67;2.57;;;0.10;99.90;;;;;;4948088;28;20481;-67
2023/01/05 09:06:10;;;;;;;4.38;2.95;;;0.10;99.90;;;;;;4948305;28;20047;-65
2023/01/05 09:08:39;;;;;;;4.75;2.63;;;0.10;99.90;;;;;;4946185;28;20051;-67
2023/01/05 09:11:21;;;;;;;6.63;3.53;;;0.00;99.90;;;;;;4949135;28;20055;-70
2023/01/05 09:13:51;;;;;;;4.07;3.30;;;0.00;99.90;;;;;;4947814;28;20159;-65
2023/01/05 09:16:21;;;;;;;6.30;3.60;;;0.00;99.90;;;;;;4947126;28;20137;-65
2023/01/05 09:19:08;;;;;;;4.63;3.17;;;0.00;99.90;;;;;;4950840;28;20047;-66
2023/01/05 09:21:38;;;;;;;6.13;3.25;;;0.00;99.90;;;;;;4949087;28;20518;-68
2023/01/05 09:24:06;;;;;;;8.45;4.22;;;0.00;99.90;;;;;;4950920;28;20051;-67
2023/01/05 09:26:33;;;;;;;6.82;3.20;;;0.00;99.90;;;;;;4950263;28;20036;-67
2023/01/05 09:29:00;;;;;;;5.60;3.35;;;0.00;99.90;;;;;;4949201;28;20055;-73
2023/01/05 09:31:27;;;;;;;5.68;3.08;;;0.00;99.90;;;;;;4951500;28;20133;-67
2023/01/05 09:33:55;;;;;;;7.65;3.55;;;0.00;99.90;;;;;;4953405;28;20122;-67
2023/01/05 09:36:24;;;;;;;5.65;2.97;;;0.00;99.90;;;;;;4944909;28;20050;-73
2023/01/05 09:38:52;;;;;;;4.05;2.80;;;0.00;99.90;;;;;;4949933;28;20548;-65
2023/01/05 09:41:22;;;;;;;7.80;3.88;;;0.00;99.90;;;;;;4949781;28;20540;-66
2023/01/05 09:43:55;;;;;;;9.23;3.95;;;0.00;99.90;;;;;;4947572;28;20070;-68
2023/01/05 09:46:28;;;;;;;7.57;3.22;;;0.00;99.90;;;;;;4952836;28;20043;-67
2023/01/05 09:48:58;;;;;;;6.57;3.28;;;0.00;99.90;;;;;;4956367;28;20145;-67
2023/01/05 09:51:25;;;;;;;9.15;3.70;;;0.00;99.90;;;;;;4955015;28;20520;-68
2023/01/05 09:53:53;;;;;;;6.28;3.88;;;0.00;99.90;;;;;;4953651;28;20070;-67
2023/01/05 09:56:33;;;;;;;9.20;3.45;;;0.00;99.90;;;;;;4954361;28;20089;-72
2023/01/05 09:59:27;;;;;;;5.78;3.45;;;0.00;99.90;;;;;;4952816;28;20047;-67
2023/01/05 10:01:59;;;;;;;8.68;3.15;;;-0.10;99.90;;;;;;4957647;28;20121;-71
2023/01/05 10:04:32;;;;;;;5.22;3.15;;;-0.10;99.90;;;;;;4952510;28;20059;-70
2023/01/05 10:07:04;;;;;;;7.32;2.58;;;-0.10;99.90;;;;;;4965993;28;20056;-73
2023/01/05 10:09:38;;;;;;;6.40;3.95;;;-0.10;99.90;;;;;;4954893;28;20055;-66
2023/01/05 10:15:10;;;;;;;8.18;3.35;;;-0.10;99.90;;;;;;4950219;28;20150;-68
2023/01/05 10:17:38;;;;;;;9.05;3.05;;;-0.10;99.90;;;;;;4964041;28;20050;-68
2023/01/05 10:20:41;;;;;;;12.27;3.20;;;-0.20;99.90;;;;;;4951689;28;20106;-67
2023/01/05 10:23:20;;;;;;;8.13;3.25;;;-0.10;99.90;;;;;;4949099;28;20043;-68
2023/01/05 10:26:10;;;;;;;3.90;2.63;;;-0.10;99.90;;;;;;4952266;28;20047;-70
2023/01/05 10:28:58;;;;;;;7.32;3.72;;;-0.10;99.90;;;;;;4927725;28;20082;-68
2023/01/05 10:31:53;;;;;;;4.32;2.67;;;-0.20;99.90;;;;;;4955080;28;20050;-68
2023/01/05 10:34:54;;;;;;;7.35;2.47;;;-0.10;99.90;;;;;;4954488;28;20071;-72
2023/01/05 10:37:40;;;;;;;;;;;-0.20;99.90;;;;;;4950258;28;20473;-71
2023/01/05 10:40:27;;;;;;;3.22;2.72;;;-0.20;99.90;;;;;;4953757;28;19996;-67
2023/01/05 10:43:03;;;;;;;5.97;2.75;;;-0.20;99.90;;;;;;4948632;28;20059;-73
2023/01/05 10:45:30;;;;;;;9.80;2.83;;;-0.20;99.90;;;;;;4947058;28;20047;-69
2023/01/05 10:47:58;;;;;;;7.07;2.60;;;-0.20;99.90;;;;;;4952624;28;20049;-69
2023/01/05 10:50:40;;;;;;;4.78;2.70;;;-0.20;99.90;;;;;;4951724;28;20109;-67
2023/01/05 10:53:27;;;;;;;6.93;2.00;;;-0.20;99.90;;;;;;4954933;28;20050;-70
2023/01/05 10:56:12;;;;;;;5.15;2.30;;;-0.20;99.90;;;;;;4948137;28;20051;-69
2023/01/05 10:58:42;;;;;;;5.53;1.98;;;-0.20;99.90;;;;;;4950255;28;20109;-68
2023/01/05 11:01:26;;;;;;;7.43;2.60;;;-0.20;99.90;;;;;;4950849;28;20067;-68
2023/01/05 11:04:01;;;;;;;5.40;2.80;;;-0.20;99.90;;;;;;4919166;28;1077046;-67
2023/01/05 11:06:48;;;;;;;6.78;2.33;;;-0.20;99.90;;;;;;4948644;28;20513;-73
2023/01/05 11:09:23;;;;;;;4.90;2.25;;;-0.20;99.90;;;;;;4955919;28;20050;-68
2023/01/05 11:12:01;;;;;;;5.43;3.90;;;-0.20;99.90;;;;;;4958442;28;20046;-69
2023/01/05 11:14:32;;;;;;;7.45;2.70;;;-0.20;99.90;;;;;;4955814;28;20553;-70
2023/01/05 11:17:02;;;;;;;5.75;2.45;;;-0.20;99.90;;;;;;4953036;28;20051;-68
2023/01/05 11:19:40;;;;;;;9.65;2.17;;;-0.30;99.90;;;;;;4958975;28;20121;-68
2023/01/05 11:22:29;;;;;;;4.45;1.95;;;-0.30;99.90;;;;;;4957029;28;20628;-68
2023/01/05 11:25:23;;;;;;;4.22;2.30;;;-0.40;99.90;;;;;;4954734;28;20047;-69
2023/01/05 11:28:07;;;;;;;6.53;2.20;;;-0.40;99.90;;;;;;4953420;28;20506;-73
2023/01/05 11:30:34;;;;;;;7.00;2.72;;;-0.40;99.90;;;;;;4952035;28;20102;-68
2023/01/05 11:33:01;;;;;;;5.35;2.53;;;-0.50;99.90;;;;;;4960988;28;20058;-71
2023/01/05 11:35:35;;;;;;;6.68;3.75;;;-0.50;99.90;;;;;;4954672;28;20059;-70
2023/01/05 11:38:02;;;;;;;4.15;2.53;;;-0.50;99.90;;;;;;4957849;28;20134;-68
2023/01/05 11:40:35;;;;;;;7.55;3.28;;;-0.50;99.90;;;;;;4956641;28;20108;-68
2023/01/05 11:43:11;;;;;;;7.47;3.05;;;-0.50;99.90;;;;;;4957957;28;20051;-67
2023/01/05 11:45:45;;;;;;;16.35;7.15;;;-0.50;99.90;;;;;;4952438;28;20060;-71
2023/01/05 11:48:22;;;;;;;10.52;4.55;;;-0.50;99.90;;;;;;4958712;28;20106;-68
2023/01/05 11:50:55;;;;;;;14.57;3.85;;;-0.50;99.90;;;;;;4956463;28;20051;-66
2023/01/05 11:53:32;;;;;;;5.22;3.25;;;-0.60;99.90;;;;;;4952532;28;20061;-69
2023/01/05 11:56:05;;;;;;;7.45;3.45;;;-0.50;99.90;;;;;;4957600;28;20516;-67
2023/01/05 11:58:40;;;;;;;18.20;7.40;;;-0.50;99.90;;;;;;4951817;28;20053;-69
2023/01/05 12:01:40;;;;;;;14.45;5.07;;;-0.50;99.90;;;;;;4958850;28;20161;-67
2023/01/05 12:04:15;;;;;;;;;;;-0.50;99.90;;;;;;4957014;28;20122;-67
2023/01/05 12:07:03;;;;;;;17.00;6.97;;;-0.50;99.90;;;;;;4938054;28;19930;-67
2023/01/05 12:09:36;;;;;;;13.32;6.60;;;-0.50;99.90;;;;;;4955067;28;20073;-67
2023/01/05 12:12:25;;;;;;;9.60;5.50;;;-0.50;99.90;;;;;;4953399;28;20542;-69
2023/01/05 12:15:24;;;;;;;16.30;7.65;;;-0.50;99.90;;;;;;4951079;28;20055;-68
2023/01/05 12:18:15;;;;;;;12.75;4.38;;;-0.50;99.90;;;;;;4948821;28;20069;-67
2023/01/05 12:20:58;;;;;;;8.45;5.10;;;-0.50;99.90;;;;;;4949507;28;20480;-67
2023/01/05 12:23:48;;;;;;;9.90;3.20;;;-0.50;99.90;;;;;;4952179;28;20059;-72
2023/01/05 12:26:18;;;;;;;3.78;2.15;;;-0.50;99.90;;;;;;4950008;28;20219;-69
2023/01/05 12:29:01;;;;;;;;;;;-0.50;99.90;;;;;;4949687;28;20157;-71
2023/01/05 12:32:09;;;;;;;6.40;2.47;;;-0.50;99.90;;;;;;4951489;28;19933;-68
2023/01/05 12:35:30;;;;;;;9.70;2.38;;;-0.50;99.90;;;;;;4947174;28;20409;-68
2023/01/05 12:38:11;;;;;;;6.60;2.55;;;-0.60;99.90;;;;;;4952889;28;20461;-74
2023/01/05 12:40:44;;;;;;;6.75;2.85;;;-0.60;99.90;;;;;;4949038;28;20059;-67
2023/01/05 12:43:42;;;;;;;6.43;2.22;;;-0.60;99.90;;;;;;4953357;28;20077;-67
2023/01/05 12:46:46;;;;;;;4.07;2.28;;;-0.60;99.90;;;;;;4955750;28;20043;-66
2023/01/05 12:49:20;;;;;;;6.68;2.20;;;-0.60;99.90;;;;;;4949422;28;20536;-67
2023/01/05 12:52:03;;;;;;;6.65;4.18;;;-0.60;99.90;;;;;;4953026;28;20560;-66
2023/01/05 12:54:54;;;;;;;15.10;4.78;;;-0.60;99.90;;;;;;4954560;28;20488;-66
2023/01/05 12:57:33;;;;;;;13.52;5.60;;;-0.60;99.90;;;;;;4959708;28;20082;-66
2023/01/05 13:00:14;;;;;;;6.53;5.40;;;-0.60;99.90;;;;;;4958559;28;20508;-66
2023/01/05 13:03:01;;;;;;;7.85;3.70;;;-0.60;99.90;;;;;;4946874;28;20522;-68
2023/01/05 13:05:44;;;;;;;8.75;4.63;;;-0.60;99.90;;;;;;4952825;28;20489;-72
2023/01/05 13:08:16;;;;;;;10.65;4.00;;;-0.60;99.90;;;;;;4950357;28;20047;-67
2023/01/05 13:10:49;;;;;;;4.22;2.70;;;-0.60;99.90;;;;;;4953189;28;20070;-69
2023/01/05 13:13:21;;;;;;;7.68;2.58;;;-0.60;99.90;;;;;;4950428;28;20132;-67
2023/01/05 13:16:07;;;;;;;5.00;2.63;;;-0.60;99.90;;;;;;4950843;28;20722;-68
2023/01/05 13:18:38;;;;;;;3.47;1.92;;;-0.60;99.90;;;;;;4947819;28;20077;-66
2023/01/05 13:21:05;;;;;;;5.28;2.78;;;-0.70;99.90;;;;;;4952508;28;20521;-69
2023/01/05 13:23:46;;;;;;;6.05;2.55;;;-0.70;99.90;;;;;;4951524;28;20043;-66
2023/01/05 13:26:19;;;;;;;5.82;2.83;;;-0.70;99.90;;;;;;4948898;28;20547;-65
2023/01/05 13:28:48;;;;;;;5.22;2.33;;;-0.80;99.90;;;;;;4951923;28;20134;-71
2023/01/05 13:31:33;;;;;;;10.27;2.60;;;-0.80;99.90;;;;;;4950775;28;20058;-66
2023/01/05 13:34:11;;;;;;;9.32;2.70;;;-0.80;99.90;;;;;;4957632;28;20480;-69
2023/01/05 13:36:44;;;;;;;6.35;2.88;;;-0.80;99.90;;;;;;4950992;28;20051;-66
2023/01/05 13:39:17;;;;;;;6.80;2.38;;;-0.80;99.90;;;;;;4949980;28;20051;-69
2023/01/05 13:41:59;;;;;;;7.13;4.47;;;-0.90;99.90;;;;;;4951206;28;20051;-65
2023/01/05 13:44:40;;;;;;;5.82;2.85;;;-0.80;99.90;;;;;;4949273;28;20046;-69
2023/01/05 13:47:31;;;;;;;4.50;3.05;;;-0.80;99.90;;;;;;4949713;28;20055;-67
2023/01/05 13:50:41;;;;;;;4.63;2.90;;;-0.80;99.90;;;;;;4948864;28;20417;-66
2023/01/05 13:53:17;;;;;;;8.10;2.67;;;-0.80;99.90;;;;;;4945147;28;20054;-67
2023/01/05 13:55:57;;;;;;;9.18;2.70;;;-0.90;99.90;;;;;;4951192;28;20342;-65
2023/01/05 13:58:33;;;;;;;6.82;3.08;;;-0.90;99.90;;;;;;4946880;28;20096;-68
2023/01/05 14:01:03;;;;;;;8.75;2.88;;;-0.90;99.90;;;;;;4954655;28;20102;-66